Swan Lake, South Dakota
Current Conditions -  °F | °C
As of 4:35 PM on Thursday 25 Dec 2014 (Local Time) from KYKN Reporting Station
Overcast Overcast  
Wind Chill: 26°   Ceiling: 1900
Heat Index: 36°   Visibility: 10mi
Dew Point: 28°   Wind: 15mph
Humidity: 75%   Direction: 40°NE
Pressure: 29.69"   Gusts: 21mph
Location:  43.1951°N, 97.1515°W
Report Text: KYKN 252235Z AUTO 04013G18KT 10SM OVC019 02/M02 A2969 RMK AO1
Loading
Personal Weather Stations






























Interactive Weather Map New forecast layout! Learn more

10-Day Weather Forecast

Advertisements
Track Severe Weather on mobile